createdAt,value
2019-05-06T00:01:33.981Z,8.40
2019-05-06T00:04:04.952Z,7.90
2019-05-06T00:06:34.681Z,8.53
2019-05-06T00:09:05.511Z,7.30
2019-05-06T00:11:34.883Z,7.90
2019-05-06T00:14:04.113Z,9.00
2019-05-06T00:16:34.644Z,12.90
2019-05-06T00:19:04.768Z,11.20
2019-05-06T00:21:35.535Z,12.05
2019-05-06T00:24:04.466Z,14.10
2019-05-06T00:26:46.738Z,16.77
2019-05-06T00:29:16.886Z,11.73
2019-05-06T00:31:45.372Z,14.45
2019-05-06T00:34:13.968Z,18.35
2019-05-06T00:36:43.673Z,16.23
2019-05-06T00:39:19.642Z,14.93
2019-05-06T00:41:50.068Z,14.58
2019-05-06T00:44:18.508Z,14.35
2019-05-06T00:49:15.018Z,17.25
2019-05-06T00:51:43.957Z,12.93
2019-05-06T00:54:17.133Z,13.95
2019-05-06T00:56:46.235Z,11.95
2019-05-06T00:59:14.692Z,11.10
2019-05-06T01:01:43.537Z,11.75
2019-05-06T01:04:13.922Z,9.20
2019-05-06T01:06:44.082Z,10.38
2019-05-06T01:09:14.759Z,7.58
2019-05-06T01:11:44.921Z,10.25
2019-05-06T01:14:18.289Z,10.43
2019-05-06T01:16:46.727Z,9.98
2019-05-06T01:19:15.219Z,9.40
2019-05-06T01:21:44.747Z,11.63
2019-05-06T01:24:14.718Z,11.03
2019-05-06T01:26:44.403Z,11.35
2019-05-06T01:29:14.537Z,10.05
2019-05-06T01:31:45.907Z,16.65
2019-05-06T01:34:13.890Z,16.55
2019-05-06T01:36:43.764Z,18.77
2019-05-06T01:39:14.012Z,13.48
2019-05-06T01:41:59.426Z,12.20
2019-05-06T01:44:28.023Z,12.88
2019-05-06T01:46:56.847Z,10.30
2019-05-06T01:49:25.515Z,20.12
2019-05-06T01:51:54.751Z,17.77
2019-05-06T01:54:24.839Z,32.93
2019-05-06T01:56:54.214Z,75.70
2019-05-06T01:59:24.642Z,87.30
2019-05-06T02:01:59.931Z,111.25
2019-05-06T02:04:24.439Z,26.70
2019-05-06T02:06:54.495Z,10.80
2019-05-06T02:09:24.667Z,8.68
2019-05-06T02:11:53.733Z,6.35
2019-05-06T02:14:24.460Z,7.40
2019-05-06T02:16:54.574Z,7.30
2019-05-06T02:19:24.158Z,5.92
2019-05-06T02:21:55.102Z,10.48
2019-05-06T02:24:25.311Z,8.78
2019-05-06T02:26:54.403Z,9.95
2019-05-06T02:29:39.037Z,11.00
2019-05-06T02:32:30.781Z,10.23
2019-05-06T02:35:05.195Z,13.75
2019-05-06T02:37:37.529Z,14.60
2019-05-06T02:42:35.589Z,10.18
2019-05-06T02:45:05.183Z,10.40
2019-05-06T02:47:42.931Z,11.12
2019-05-06T02:50:30.031Z,9.65
2019-05-06T02:52:58.472Z,12.95
2019-05-06T02:55:26.988Z,15.60
2019-05-06T02:57:55.843Z,13.30
2019-05-06T03:00:24.449Z,12.58
2019-05-06T03:02:54.122Z,15.30
2019-05-06T03:05:23.767Z,14.33
2019-05-06T03:07:57.154Z,12.28
2019-05-06T03:10:24.640Z,14.87
2019-05-06T03:12:53.814Z,15.88
2019-05-06T03:15:24.054Z,13.35
2019-05-06T03:17:55.383Z,11.65
2019-05-06T03:20:43.886Z,15.98
2019-05-06T03:23:14.469Z,14.15
2019-05-06T03:28:13.327Z,15.10
2019-05-06T03:30:45.969Z,17.10
2019-05-06T03:33:38.410Z,12.93
2019-05-06T03:35:57.763Z,18.92
2019-05-06T03:38:13.713Z,14.53
2019-05-06T03:40:45.705Z,12.40
2019-05-06T03:43:13.194Z,12.95
2019-05-06T03:45:53.489Z,14.90
2019-05-06T03:48:34.470Z,11.93
2019-05-06T03:51:04.027Z,13.18
2019-05-06T03:53:34.351Z,16.73
2019-05-06T03:56:03.637Z,12.90
2019-05-06T03:58:35.180Z,17.27
2019-05-06T04:01:04.017Z,14.30
2019-05-06T04:03:44.049Z,11.25
2019-05-06T04:06:04.678Z,13.10
2019-05-06T04:44:08.262Z,10.53
2019-05-06T04:49:04.546Z,9.03
2019-05-06T04:56:33.321Z,8.30
2019-05-06T05:36:36.567Z,9.75
2019-05-06T05:39:06.456Z,11.22
2019-05-06T05:41:35.021Z,10.28
2019-05-06T05:58:58.352Z,9.73
2019-05-06T06:01:27.024Z,8.18
2019-05-06T06:03:55.125Z,13.32
2019-05-06T06:06:23.707Z,9.80
2019-05-06T06:08:52.499Z,9.85
2019-05-06T06:11:23.467Z,10.35
2019-05-06T06:13:52.549Z,10.95
2019-05-06T06:16:37.587Z,12.55
2019-05-06T06:19:18.262Z,6.62
2019-05-06T06:21:52.393Z,5.78
2019-05-06T06:24:22.705Z,9.63
2019-05-06T06:26:52.082Z,9.68
2019-05-06T06:29:22.730Z,10.23
2019-05-06T06:32:10.811Z,11.95
2019-05-06T06:34:42.724Z,9.85
2019-05-06T06:37:27.780Z,5.80
2019-05-06T06:39:57.264Z,10.53
2019-05-06T06:42:25.826Z,14.93
2019-05-06T06:44:54.339Z,10.95
2019-05-06T06:47:23.220Z,11.22
2019-05-06T06:49:53.486Z,10.65
2019-05-06T06:52:23.069Z,13.18
2019-05-06T06:54:52.724Z,10.17
2019-05-06T06:57:25.863Z,7.62
2019-05-06T07:00:04.122Z,9.93
2019-05-06T07:02:43.539Z,14.45
2019-05-06T07:05:24.529Z,13.13
2019-05-06T07:07:47.605Z,20.45
2019-05-06T07:10:33.945Z,15.18
2019-05-06T07:13:03.025Z,10.43
2019-05-06T07:15:33.696Z,9.20
2019-05-06T07:18:02.507Z,12.93
2019-05-06T07:20:35.298Z,9.13
2019-05-06T07:38:02.381Z,10.78
2019-05-06T07:40:32.662Z,10.85
2019-05-06T08:03:02.525Z,7.75
2019-05-06T08:05:32.420Z,9.23
2019-05-06T08:08:03.472Z,7.42
2019-05-06T08:10:33.533Z,9.38
2019-05-06T08:13:03.068Z,6.15
2019-05-06T08:15:32.837Z,7.05
2019-05-06T08:18:03.516Z,6.70
2019-05-06T08:20:37.980Z,8.60
2019-05-06T08:28:13.205Z,7.03
2019-05-06T10:20:42.602Z,15.18
2019-05-06T10:23:12.238Z,11.28
2019-05-06T10:25:43.750Z,10.65
2019-05-06T10:28:19.704Z,18.65
2019-05-06T10:30:49.947Z,30.30
2019-05-06T10:33:23.146Z,21.37
2019-05-06T10:35:53.030Z,8.55
2019-05-06T10:38:54.940Z,12.15
2019-05-06T10:44:12.315Z,9.73
2019-05-06T10:46:43.054Z,12.80
2019-05-06T10:49:13.176Z,11.10
2019-05-06T10:52:02.151Z,13.28
2019-05-06T10:54:31.831Z,19.77
2019-05-06T10:57:05.011Z,14.07
2019-05-06T11:02:12.983Z,13.50
2019-05-06T11:04:42.595Z,10.53
2019-05-06T11:17:05.800Z,16.50
2019-05-06T11:19:34.426Z,12.70
2019-05-06T11:22:03.573Z,13.00
2019-05-06T11:24:32.739Z,8.98
2019-05-06T11:27:03.430Z,9.20
2019-05-06T11:29:36.772Z,10.32
2019-05-06T11:56:58.201Z,16.07
2019-05-06T11:59:24.709Z,27.07
2019-05-06T12:02:02.547Z,18.70
2019-05-06T12:04:32.889Z,39.73
2019-05-06T12:07:10.502Z,9.90
2019-05-06T12:09:33.009Z,15.70
2019-05-06T12:12:03.345Z,21.10
2019-05-06T12:14:32.085Z,10.78
2019-05-06T12:17:02.242Z,19.50
2019-05-06T12:19:32.395Z,15.65
2019-05-06T12:24:28.784Z,16.80
2019-05-06T12:26:57.200Z,13.32
2019-05-06T12:29:25.912Z,9.43
2019-05-06T12:31:55.980Z,9.33
2019-05-06T12:34:24.401Z,11.60
2019-05-06T12:36:54.511Z,9.25
2019-05-06T12:39:24.535Z,9.88
2019-05-06T12:42:08.436Z,7.15
2019-05-06T12:44:38.457Z,10.70
2019-05-06T12:47:21.307Z,8.40
2019-05-06T12:49:49.948Z,6.40
2019-05-06T12:52:18.450Z,11.80
2019-05-06T12:54:46.960Z,11.28
